createdAt,value
2023-03-22T00:00:42.957Z,8.07
2023-03-22T00:03:12.844Z,7.00
2023-03-22T00:05:41.343Z,11.13
2023-03-22T00:08:10.043Z,7.90
2023-03-22T00:10:39.770Z,12.60
2023-03-22T00:13:12.614Z,8.37
2023-03-22T00:15:45.537Z,8.03
2023-03-22T00:18:15.886Z,7.77
2023-03-22T00:20:52.169Z,8.90
2023-03-22T00:23:21.171Z,9.87
2023-03-22T00:25:51.373Z,6.03
2023-03-22T00:28:21.771Z,9.67
2023-03-22T00:30:55.464Z,7.30
2023-03-22T00:33:29.202Z,9.47
2023-03-22T00:36:01.919Z,8.73
2023-03-22T00:38:44.833Z,14.03
2023-03-22T00:41:17.268Z,6.83
2023-03-22T00:43:48.742Z,12.30
2023-03-22T00:46:19.963Z,9.87
2023-03-22T00:48:49.638Z,8.77
2023-03-22T00:51:18.731Z,10.63
2023-03-22T00:53:53.181Z,9.17
2023-03-22T00:56:22.958Z,12.53
2023-03-22T00:59:13.394Z,7.40
2023-03-22T01:01:43.302Z,11.60
2023-03-22T01:04:15.347Z,8.57
2023-03-22T01:06:47.060Z,9.17
2023-03-22T01:09:15.886Z,13.93
2023-03-22T01:11:46.155Z,9.20
2023-03-22T01:14:16.191Z,11.60
2023-03-22T01:16:44.685Z,13.70
2023-03-22T01:19:13.356Z,17.10
2023-03-22T01:21:41.831Z,10.83
2023-03-22T01:24:10.693Z,14.20
2023-03-22T01:26:40.768Z,8.70
2023-03-22T01:29:09.172Z,11.53
2023-03-22T01:31:42.596Z,10.10
2023-03-22T01:34:13.024Z,11.00
2023-03-22T01:36:41.698Z,9.60
2023-03-22T01:39:10.706Z,11.73
2023-03-22T01:41:41.232Z,14.37
2023-03-22T01:44:20.871Z,14.73
2023-03-22T01:46:53.275Z,17.83
2023-03-22T01:49:28.800Z,14.77
2023-03-22T01:52:01.785Z,12.30
2023-03-22T01:54:55.097Z,16.00
2023-03-22T01:57:37.756Z,21.00
2023-03-22T02:00:15.975Z,22.73
2023-03-22T02:03:26.189Z,19.87
2023-03-22T02:05:56.069Z,21.20
2023-03-22T02:08:33.940Z,22.90
2023-03-22T02:11:11.276Z,19.40
2023-03-22T02:14:05.588Z,27.43
2023-03-22T02:17:11.445Z,27.07
2023-03-22T02:20:53.210Z,23.10
2023-03-22T02:24:03.126Z,24.20
2023-03-22T02:27:27.013Z,21.43
2023-03-22T02:30:18.104Z,23.73
2023-03-22T02:33:24.565Z,23.20
2023-03-22T02:36:32.815Z,22.20
2023-03-22T02:39:23.927Z,23.73
2023-03-22T02:42:21.391Z,22.13
2023-03-22T02:45:03.012Z,18.50
2023-03-22T02:47:41.631Z,20.77
2023-03-22T02:50:17.457Z,21.93
2023-03-22T02:52:52.748Z,24.53
2023-03-22T02:55:34.098Z,23.10
2023-03-22T02:58:11.532Z,25.63
2023-03-22T03:00:42.688Z,23.47
2023-03-22T03:03:18.399Z,25.57
2023-03-22T03:05:52.754Z,20.87
2023-03-22T03:08:24.015Z,20.87
2023-03-22T03:10:56.269Z,22.97
2023-03-22T03:13:24.802Z,20.83
2023-03-22T03:16:01.816Z,22.90
2023-03-22T03:18:49.133Z,17.37
2023-03-22T03:21:35.162Z,20.07
2023-03-22T03:24:22.728Z,22.50
2023-03-22T03:27:00.391Z,23.57
2023-03-22T03:29:39.762Z,21.53
2023-03-22T03:32:16.713Z,18.70
2023-03-22T03:34:52.817Z,18.63
2023-03-22T03:37:26.347Z,15.60
2023-03-22T03:40:04.831Z,18.90
2023-03-22T03:42:39.989Z,20.70
2023-03-22T03:45:10.505Z,16.23
2023-03-22T03:47:45.804Z,22.40
2023-03-22T03:50:16.799Z,21.83
2023-03-22T03:52:53.813Z,20.70
2023-03-22T03:55:23.690Z,19.97
2023-03-22T03:57:53.553Z,18.87
2023-03-22T04:00:21.918Z,19.07
2023-03-22T04:03:13.843Z,16.33
2023-03-22T04:05:56.898Z,16.00
2023-03-22T04:08:25.340Z,17.30
2023-03-22T04:10:54.168Z,16.50
2023-03-22T04:13:25.169Z,14.27
2023-03-22T04:15:57.491Z,18.27
2023-03-22T04:18:27.708Z,17.00
2023-03-22T04:20:57.134Z,18.87
2023-03-22T04:23:26.489Z,18.20
2023-03-22T04:25:54.914Z,15.60
2023-03-22T04:28:36.144Z,14.03
2023-03-22T04:31:04.550Z,14.40
2023-03-22T04:33:56.676Z,19.03
2023-03-22T04:36:36.602Z,15.90
2023-03-22T04:39:20.299Z,15.27
2023-03-22T04:41:57.683Z,14.87
2023-03-22T04:44:28.056Z,14.27
2023-03-22T04:46:56.936Z,14.70
2023-03-22T04:49:26.770Z,18.33
2023-03-22T04:51:56.483Z,12.33
2023-03-22T04:54:33.378Z,13.77
2023-03-22T04:57:02.678Z,16.10
2023-03-22T04:59:36.995Z,16.43
2023-03-22T05:02:05.820Z,16.37
2023-03-22T05:04:41.673Z,15.30
2023-03-22T05:07:30.288Z,15.47
2023-03-22T05:10:00.781Z,16.20
2023-03-22T05:12:29.886Z,12.97
2023-03-22T05:15:06.177Z,12.03
2023-03-22T05:17:37.937Z,15.40
2023-03-22T05:20:10.298Z,16.27
2023-03-22T05:22:40.938Z,15.77
2023-03-22T05:25:12.014Z,17.33
2023-03-22T05:27:44.560Z,11.87
2023-03-22T05:30:33.799Z,11.60
2023-03-22T05:33:13.240Z,13.60
2023-03-22T05:35:46.430Z,12.03
2023-03-22T05:38:16.976Z,16.27
2023-03-22T05:40:50.787Z,14.53
2023-03-22T05:43:19.556Z,17.83
2023-03-22T05:45:53.052Z,15.03
2023-03-22T05:48:37.095Z,10.03
2023-03-22T05:51:08.608Z,9.60
2023-03-22T05:53:37.556Z,9.20
2023-03-22T05:56:11.759Z,13.37
2023-03-22T05:58:42.289Z,15.33
2023-03-22T06:01:19.392Z,10.63
2023-03-22T06:03:48.513Z,16.43
2023-03-22T06:06:43.179Z,11.67
2023-03-22T06:09:18.258Z,17.80
2023-03-22T06:11:51.211Z,9.97
2023-03-22T06:14:21.200Z,15.70
2023-03-22T06:17:03.835Z,13.40
2023-03-22T06:19:32.281Z,12.07
2023-03-22T06:22:03.809Z,12.47
2023-03-22T06:24:34.851Z,8.20
2023-03-22T06:27:04.178Z,9.47
2023-03-22T06:29:33.525Z,13.07
2023-03-22T06:32:06.288Z,8.07
2023-03-22T06:34:35.374Z,13.07
2023-03-22T06:37:04.294Z,11.50
2023-03-22T06:39:36.063Z,9.73
2023-03-22T06:42:04.953Z,13.63
2023-03-22T06:44:34.081Z,16.93
2023-03-22T06:47:22.398Z,11.90
2023-03-22T06:49:59.789Z,13.63
2023-03-22T06:52:43.163Z,7.60
2023-03-22T06:55:11.902Z,10.27
2023-03-22T06:57:40.783Z,12.20
2023-03-22T07:00:13.067Z,9.67
2023-03-22T07:02:42.777Z,11.77
2023-03-22T07:05:33.770Z,8.87
2023-03-22T07:08:02.157Z,9.70
2023-03-22T07:10:31.045Z,11.43
2023-03-22T07:13:00.607Z,9.87
2023-03-22T07:15:29.104Z,11.57
2023-03-22T07:18:21.703Z,11.80
2023-03-22T07:20:50.216Z,8.70
2023-03-22T07:23:19.309Z,6.00
2023-03-22T07:25:53.508Z,10.07
2023-03-22T07:28:29.344Z,10.70
2023-03-22T07:31:02.969Z,11.63
2023-03-22T07:33:38.667Z,12.60
2023-03-22T07:36:10.388Z,14.17
2023-03-22T07:38:39.342Z,10.03
2023-03-22T07:41:12.354Z,11.53
2023-03-22T07:44:07.761Z,6.37
2023-03-22T07:46:47.939Z,8.20
2023-03-22T07:49:25.423Z,8.93
2023-03-22T07:52:13.026Z,11.50
2023-03-22T07:54:42.291Z,14.40
2023-03-22T07:57:11.238Z,12.70
2023-03-22T07:59:48.401Z,11.67
2023-03-22T08:02:17.195Z,8.60
2023-03-22T08:04:55.719Z,11.03
2023-03-22T08:07:45.035Z,10.57
2023-03-22T08:10:14.758Z,10.93
2023-03-22T08:12:43.238Z,8.80
2023-03-22T08:15:22.681Z,10.00
2023-03-22T08:17:58.984Z,12.43
2023-03-22T08:20:35.761Z,12.67
2023-03-22T08:23:12.153Z,12.07
2023-03-22T08:25:58.972Z,13.17
2023-03-22T08:28:27.625Z,11.60
2023-03-22T08:30:56.051Z,8.93
2023-03-22T08:33:25.361Z,12.00
2023-03-22T08:36:08.761Z,11.13
2023-03-22T08:38:45.206Z,11.67
2023-03-22T08:41:17.152Z,11.53
2023-03-22T08:43:45.615Z,9.60
2023-03-22T08:46:14.135Z,10.10
2023-03-22T08:48:50.479Z,7.90
2023-03-22T08:51:31.331Z,13.43
2023-03-22T08:54:20.315Z,13.83
2023-03-22T08:56:54.887Z,11.47
2023-03-22T08:59:37.115Z,8.73
2023-03-22T09:02:32.126Z,10.30
2023-03-22T09:05:01.195Z,13.07
2023-03-22T09:07:31.139Z,11.43
2023-03-22T09:10:17.780Z,9.33
2023-03-22T09:12:49.188Z,9.67
2023-03-22T09:15:18.154Z,14.20
2023-03-22T09:17:53.588Z,14.33
2023-03-22T09:20:25.402Z,11.67
2023-03-22T09:22:55.467Z,11.87
2023-03-22T09:25:24.371Z,9.50
2023-03-22T09:27:53.889Z,8.90
2023-03-22T09:30:22.734Z,9.37
2023-03-22T09:32:51.377Z,14.20
2023-03-22T09:35:20.062Z,13.30
2023-03-22T09:38:06.117Z,13.47
2023-03-22T09:40:36.295Z,10.97
2023-03-22T09:43:10.277Z,11.30
2023-03-22T09:45:42.367Z,10.00
2023-03-22T09:48:19.401Z,10.50
2023-03-22T09:50:52.472Z,8.47
2023-03-22T09:53:27.673Z,14.10
2023-03-22T09:56:02.778Z,16.03
2023-03-22T09:58:37.312Z,10.70
2023-03-22T10:01:16.319Z,11.03
2023-03-22T10:04:26.439Z,11.53
2023-03-22T10:07:07.505Z,11.33
2023-03-22T10:09:46.415Z,9.70
2023-03-22T10:12:24.387Z,12.00
2023-03-22T10:15:05.169Z,15.23
2023-03-22T10:17:34.343Z,16.87
2023-03-22T10:20:09.553Z,12.80
2023-03-22T10:22:45.367Z,11.03
2023-03-22T10:25:20.754Z,8.97
2023-03-22T10:27:53.099Z,7.83
2023-03-22T10:30:24.118Z,11.00
2023-03-22T10:32:59.361Z,10.20
2023-03-22T10:35:29.611Z,9.50
2023-03-22T10:38:02.896Z,8.33
2023-03-22T10:40:35.347Z,10.23
2023-03-22T10:43:09.111Z,11.70
2023-03-22T10:45:38.937Z,8.87
2023-03-22T10:48:12.814Z,8.13
2023-03-22T10:50:46.165Z,6.70
2023-03-22T10:53:25.818Z,8.00
2023-03-22T10:55:55.656Z,11.93
2023-03-22T10:58:29.524Z,8.53
2023-03-22T11:01:01.081Z,10.83
2023-03-22T11:03:37.284Z,9.70
2023-03-22T11:06:11.192Z,8.30
2023-03-22T11:08:46.775Z,8.63
2023-03-22T11:11:23.504Z,6.93
2023-03-22T11:14:04.033Z,11.50
2023-03-22T11:16:42.150Z,7.83
2023-03-22T11:19:18.605Z,12.30
2023-03-22T11:21:47.125Z,7.73
2023-03-22T11:24:16.368Z,6.63
2023-03-22T11:27:05.776Z,9.47
2023-03-22T11:29:44.190Z,8.23
2023-03-22T11:32:27.171Z,15.67
2023-03-22T11:35:06.859Z,3.90
2023-03-22T11:37:41.630Z,7.00
2023-03-22T11:40:16.964Z,10.03
2023-03-22T11:42:47.890Z,9.60
2023-03-22T11:45:21.762Z,8.23
2023-03-22T11:47:50.235Z,6.17
2023-03-22T11:50:29.311Z,5.00
2023-03-22T11:52:58.217Z,5.70
2023-03-22T11:55:27.552Z,10.20
2023-03-22T11:57:58.694Z,8.30
2023-03-22T12:00:30.813Z,7.90
2023-03-22T12:03:04.747Z,7.57
2023-03-22T12:05:35.400Z,7.43
2023-03-22T12:08:12.831Z,7.97
2023-03-22T12:10:44.762Z,7.87
2023-03-22T12:13:22.415Z,7.83
2023-03-22T12:15:56.324Z,7.97
2023-03-22T12:18:30.737Z,4.93
2023-03-22T12:21:01.648Z,7.67
2023-03-22T12:23:32.667Z,2.70
2023-03-22T12:26:06.444Z,9.60
2023-03-22T12:28:42.605Z,7.23
2023-03-22T12:31:18.870Z,8.23
2023-03-22T12:33:52.010Z,6.13
2023-03-22T12:36:28.198Z,7.40
2023-03-22T12:38:59.734Z,7.90
2023-03-22T12:41:34.980Z,9.17
2023-03-22T12:44:11.818Z,9.17
2023-03-22T12:46:51.589Z,10.67
2023-03-22T12:49:28.969Z,6.50
2023-03-22T12:52:12.580Z,8.87
2023-03-22T12:54:43.104Z,6.57
2023-03-22T12:57:12.828Z,5.47
2023-03-22T12:59:46.353Z,8.93
2023-03-22T13:02:19.464Z,6.90
2023-03-22T13:04:53.933Z,9.93
2023-03-22T13:07:51.514Z,11.27
2023-03-22T13:11:07.173Z,9.10
2023-03-22T13:13:46.596Z,8.33
2023-03-22T13:16:25.504Z,9.87
2023-03-22T13:19:17.972Z,12.03
2023-03-22T13:21:50.386Z,10.53
2023-03-22T13:24:24.088Z,10.50
2023-03-22T13:26:55.594Z,10.43
2023-03-22T13:29:26.658Z,9.93
2023-03-22T13:32:00.490Z,9.33
2023-03-22T13:34:38.729Z,11.53
2023-03-22T13:37:12.714Z,8.93
2023-03-22T13:39:42.193Z,7.33
2023-03-22T13:42:21.575Z,10.03
2023-03-22T13:45:00.062Z,10.33
2023-03-22T13:47:37.935Z,12.37
2023-03-22T13:50:18.017Z,10.80
2023-03-22T13:52:55.983Z,9.33
2023-03-22T13:55:58.270Z,7.87
2023-03-22T13:58:49.476Z,13.43
2023-03-22T14:01:28.263Z,11.80
2023-03-22T14:04:03.383Z,9.57
2023-03-22T14:06:36.220Z,9.17
2023-03-22T14:09:14.846Z,12.40
2023-03-22T14:11:49.825Z,9.57
2023-03-22T14:14:23.944Z,12.73
2023-03-22T14:16:59.316Z,8.37
2023-03-22T14:19:33.112Z,7.73
